Pearl Of Scandinavia — OWFU2 — position and weather

sailwx.info

Track history (hours):
 
Tides and Currents Weather Stations Pressure Air Temp Water Temp Dewpoint Dewpoint Depression Visibility Wind Speed Wind Dir Waves Ship Positions

Pearl Of Scandinavia

Last reported at 2014-Sep-17 23:33 UTC. Time now 2014-Sep-17 23:36 UTC.
Position N 57°53' E 011°03'.

Length 176.4 m; beam 34 m; draft 6.215 m.

Type: Ship. MMSI: 219945000.

Date/timePositionNaut miles runAvg speedWind from/ knotsBaromVisibWave heightAir tempDewpointWater temp
2014-Sep-17 23:33N 57°53' E 011°03'1616.1
2014-Sep-17 22:33N 57°37' E 011°12'1616.4
2014-Sep-17 21:34N 57°24' E 011°31'1716.9
2014-Sep-17 20:33N 57°08' E 011°41'1716.8
2014-Sep-17 19:33N 56°52' E 011°51'1616.3
2014-Sep-17 18:33N 56°38' E 012°07'1616.1
2014-Sep-17 17:33N 56°24' E 012°20'1616.3
2014-Sep-17 16:33N 56°09' E 012°31'1616.2
2014-Sep-17 15:34N 55°55' E 012°44'1313.2
2014-Sep-17 14:33N 55°42' E 012°36'0 0.1
2014-Sep-17 13:32N 55°42' E 012°36'0 0.0
2014-Sep-17 12:32N 55°42' E 012°36'0 0.0
2014-Sep-17 11:32N 55°42' E 012°36'0 0.0
2014-Sep-17 10:32N 55°42' E 012°36'0 0.0
2014-Sep-17 09:32N 55°42' E 012°36'0 0.0
2014-Sep-17 08:32N 55°42' E 012°36'0 0.3
2014-Sep-17 07:34N 55°42' E 012°36'1111.3
2014-Sep-17 06:33N 55°53' E 012°40'1313.2
2014-Sep-17 05:33N 56°06' E 012°33'1414.4
2014-Sep-17 04:33N 56°19' E 012°22'1514.8
2014-Sep-17 03:33N 56°34' E 012°17'1615.7
2014-Sep-17 02:32N 56°49' E 012°11'1515.5
2014-Sep-17 01:33N 57°03' E 012°00'1615.5
2014-Sep-17 00:33N 57°17' E 011°48'1615.8
2014-Sep-16 23:33N 57°31' E 011°32'1616.4
2014-Sep-16 22:33N 57°46' E 011°21'1616.3
2014-Sep-16 21:33N 58°01' E 011°11'1616.3
2014-Sep-16 20:33N 58°17' E 011°01'3517.0
2014-Sep-16 18:31N 58°50' E 010°45'1617.0
2014-Sep-16 17:33N 59°07' E 010°39'1717.4
2014-Sep-16 16:33N 59°24' E 010°34'3115.1
2014-Sep-16 14:32N 59°54' E 010°43'1 0.6
2014-Sep-16 13:23N 59°54' E 010°45'0 0.0
2014-Sep-16 12:26N 59°54' E 010°45'0 0.0
2014-Sep-16 11:23N 59°54' E 010°45'0 0.0
2014-Sep-16 10:26N 59°54' E 010°45'0 0.0
2014-Sep-16 09:29N 59°54' E 010°45'0 0.0
2014-Sep-16 08:29N 59°54' E 010°45'0 0.1
2014-Sep-16 07:33N 59°54' E 010°45'1912.5
2014-Sep-16 06:04N 59°36' E 010°38'915.7
2014-Sep-16 05:30N 59°27' E 010°34'1516.2
2014-Sep-16 04:33N 59°12' E 010°39'1616.4
2014-Sep-16 03:33N 58°56' E 010°42'4916.2
2014-Sep-16 00:30N 58°08' E 011°06'1516.1
2014-Sep-15 23:33N 57°53' E 011°15'1616.4
2014-Sep-15 22:34N 57°38' E 011°24'1716.5
2014-Sep-15 21:34N 57°22' E 011°33'1616.3
2014-Sep-15 20:34N 57°06' E 011°42'1615.8
2014-Sep-15 19:34N 56°52' E 011°53'1615.7
2014-Sep-15 18:33N 56°38' E 012°07'1615.8
2014-Sep-15 17:34N 56°24' E 012°20'1717.1
2014-Sep-15 16:34N 56°08' E 012°32'1616.5
2014-Sep-15 15:33N 55°53' E 012°45'1212.2
2014-Sep-15 14:33N 55°42' E 012°36'0 0.0
2014-Sep-15 13:32N 55°42' E 012°36'0 0.0
2014-Sep-15 12:32N 55°42' E 012°36'0 0.0
2014-Sep-15 11:32N 55°42' E 012°36'0 0.0
2014-Sep-15 10:32N 55°42' E 012°36'0 0.0
2014-Sep-15 09:32N 55°42' E 012°36'0 0.0
2014-Sep-15 08:32N 55°42' E 012°36'0 0.2
2014-Sep-15 07:34N 55°42' E 012°36'1110.9
2014-Sep-15 06:34N 55°53' E 012°40'1413.5
2014-Sep-15 05:33N 56°06' E 012°33'1414.3
2014-Sep-15 04:33N 56°19' E 012°23'1515.1
2014-Sep-15 03:33N 56°34' E 012°17'1514.9
2014-Sep-15 02:33N 56°48' E 012°11'1515.2
2014-Sep-15 01:33N 57°03' E 012°01'1515.3
2014-Sep-15 00:33N 57°16' E 011°49'1515.2
2014-Sep-14 23:33N 57°29' E 011°34'1615.6
2014-Sep-14 22:33N 57°43' E 011°22'1616.3
2014-Sep-14 21:33N 57°58' E 011°12'1817.1
2014-Sep-14 20:32N 58°15' E 011°02'3617.4
2014-Sep-14 18:29N 58°50' E 010°45'1617.4
2014-Sep-14 17:33N 59°06' E 010°40'1817.7
2014-Sep-14 16:33N 59°23' E 010°34'3115.3
2014-Sep-14 14:32N 59°54' E 010°42'1 1.3
2014-Sep-14 13:30N 59°54' E 010°45'0 0.0
2014-Sep-14 12:33N 59°54' E 010°45'0 0.0
2014-Sep-14 11:33N 59°54' E 010°45'0 0.0
2014-Sep-14 10:33N 59°54' E 010°45'0 0.0
2014-Sep-14 09:21N 59°54' E 010°45'0 0.0
2014-Sep-14 08:33N 59°54' E 010°45'0 0.1
2014-Sep-14 07:33N 59°54' E 010°45'1212.2
2014-Sep-14 06:33N 59°43' E 010°35'1514.5
2014-Sep-14 05:33N 59°28' E 010°34'1616.1
2014-Sep-14 04:33N 59°12' E 010°39'1616.4
2014-Sep-14 03:33N 58°56' E 010°42'9816.3
2014-Sep-13 21:33N 57°22' E 011°33'1616.4
2014-Sep-13 20:33N 57°06' E 011°42'1716.4
2014-Sep-13 19:32N 56°51' E 011°53'1616.2
2014-Sep-13 18:33N 56°38' E 012°10'1616.1
2014-Sep-13 17:33N 56°23' E 012°20'1616.5
2014-Sep-13 16:33N 56°08' E 012°32'1716.6
2014-Sep-13 15:33N 55°53' E 012°44'1111.5
2014-Sep-13 14:33N 55°42' E 012°36'0 0.0
2014-Sep-13 13:34N 55°42' E 012°36'0 0.0
2014-Sep-13 12:33N 55°42' E 012°36'0 0.0
2014-Sep-13 11:33N 55°42' E 012°36'0 0.0
2014-Sep-13 10:33N 55°42' E 012°36'0 0.0
2014-Sep-13 09:33N 55°42' E 012°36'0 0.0
2014-Sep-13 08:33N 55°42' E 012°36'0 0.3
2014-Sep-13 07:33N 55°42' E 012°36'1110.7
2014-Sep-13 06:33N 55°53' E 012°40'1313.2
2014-Sep-13 05:33N 56°06' E 012°34'1414.0
2014-Sep-13 04:33N 56°18' E 012°23'1515.2
2014-Sep-13 03:33N 56°33' E 012°16'1615.6
2014-Sep-13 02:33N 56°48' E 012°09'1715.6
2014-Sep-13 01:29N 57°04' E 012°00'1516.4
2014-Sep-13 00:33N 57°18' E 011°48'1716.6
2014-Sep-12 23:33N 57°32' E 011°34'1717.1
2014-Sep-12 22:33N 57°47' E 011°19'1717.2
2014-Sep-12 21:33N 58°04' E 011°09'1916.9
2014-Sep-12 20:27N 58°22' E 010°59'3317.3
2014-Sep-12 18:33N 58°54' E 010°44'1817.7
2014-Sep-12 17:33N 59°11' E 010°38'1817.7
2014-Sep-12 16:33N 59°29' E 010°34'2613.0
2014-Sep-12 14:33N 59°54' E 010°45'0 0.0
2014-Sep-12 13:24N 59°54' E 010°45'0 0.0
2014-Sep-12 12:24N 59°54' E 010°45'0 0.0
2014-Sep-12 11:27N 59°54' E 010°45'0 0.0
2014-Sep-12 10:27N 59°54' E 010°45'0 0.0
2014-Sep-12 09:30N 59°54' E 010°45'0 0.0
2014-Sep-12 08:30N 59°54' E 010°45'0 0.2
2014-Sep-12 07:33N 59°54' E 010°45'3213.6
2014-Sep-12 05:14N 59°23' E 010°35'1116.6
2014-Sep-12 04:33N 59°12' E 010°39'1716.6
2014-Sep-12 03:33N 58°55' E 010°42'5016.5
2014-Sep-12 00:31N 58°07' E 011°07'1616.7
2014-Sep-11 23:33N 57°51' E 011°16'1616.2
2014-Sep-11 22:33N 57°36' E 011°25'1616.0
2014-Sep-11 21:33N 57°21' E 011°34'1616.1
2014-Sep-11 20:33N 57°05' E 011°43'1615.8
2014-Sep-11 19:33N 56°51' E 011°54'1615.7
2014-Sep-11 18:33N 56°37' E 012°09'1515.7
2014-Sep-11 17:33N 56°23' E 012°20'1616.0
2014-Sep-11 16:33N 56°08' E 012°32'1716.5
2014-Sep-11 15:33N 55°53' E 012°44'1212.2
2014-Sep-11 14:33N 55°42' E 012°36'0 0.0
2014-Sep-11 13:28N 55°42' E 012°36'0 0.0
2014-Sep-11 12:28N 55°42' E 012°36'0 0.0
2014-Sep-11 11:31N 55°42' E 012°36'0 0.0
2014-Sep-11 10:31N 55°42' E 012°36'0 0.0
2014-Sep-11 09:31N 55°42' E 012°36'0 0.0
2014-Sep-11 08:31N 55°42' E 012°36'0 0.1
2014-Sep-11 07:33N 55°42' E 012°36'1111.1
2014-Sep-11 06:33N 55°53' E 012°40'1313.3
2014-Sep-11 05:33N 56°06' E 012°34'1414.4
2014-Sep-11 04:34N 56°19' E 012°23'1615.6
2014-Sep-11 03:33N 56°34' E 012°16'1515.4
2014-Sep-11 02:33N 56°49' E 012°09'1615.7
2014-Sep-11 01:33N 57°04' E 012°00'1615.8
2014-Sep-11 00:33N 57°18' E 011°47'1716.7
2014-Sep-10 23:34N 57°33' E 011°32'1616.5
2014-Sep-10 22:33N 57°47' E 011°18'1616.3
2014-Sep-10 21:33N 58°03' E 011°09'1716.2
2014-Sep-10 20:29N 58°20' E 010°60'3316.5
2014-Sep-10 18:30N 58°51' E 010°46'1617.2
2014-Sep-10 17:33N 59°07' E 010°39'1818.0
2014-Sep-10 16:33N 59°25' E 010°33'2914.7
2014-Sep-10 14:33N 59°54' E 010°43'1 0.6
2014-Sep-10 13:28N 59°54' E 010°45'0 0.0
2014-Sep-10 12:28N 59°54' E 010°45'0 0.0
2014-Sep-10 11:31N 59°54' E 010°45'0 0.0
2014-Sep-10 10:31N 59°54' E 010°45'0 0.0
2014-Sep-10 09:31N 59°54' E 010°45'0 0.0
2014-Sep-10 08:31N 59°54' E 010°45'0 0.2
2014-Sep-10 07:33N 59°54' E 010°44'2713.7
2014-Sep-10 05:33N 59°27' E 010°34'1615.9
2014-Sep-10 04:33N 59°11' E 010°39'1616.0
2014-Sep-10 03:33N 58°56' E 010°42'4916.2
2014-Sep-10 00:33N 58°08' E 011°06'1716.9
2014-Sep-09 23:34N 57°52' E 011°15'1616.3
2014-Sep-09 22:33N 57°37' E 011°24'1616.2
2014-Sep-09 21:33N 57°21' E 011°33'1616.3
2014-Sep-09 20:33N 57°06' E 011°43'1616.0
2014-Sep-09 19:33N 56°51' E 011°55'1616.0
2014-Sep-09 18:33N 56°37' E 012°10'1616.2
2014-Sep-09 17:33N 56°23' E 012°21'1615.9
2014-Sep-09 16:33N 56°08' E 012°32'1514.6
2014-Sep-09 15:33N 55°55' E 012°44'1313.4
2014-Sep-09 14:33N 55°42' E 012°36'0 0.2
2014-Sep-09 13:32N 55°42' E 012°36'0 0.0
2014-Sep-09 12:32N 55°42' E 012°36'0 0.0
2014-Sep-09 11:32N 55°42' E 012°36'0 0.0
2014-Sep-09 10:32N 55°42' E 012°36'0 0.0
2014-Sep-09 09:32N 55°42' E 012°36'0 0.0
2014-Sep-09 08:32N 55°42' E 012°36'0 0.2
2014-Sep-09 07:33N 55°42' E 012°36'1110.6
2014-Sep-09 06:34N 55°53' E 012°40'1313.4
2014-Sep-09 05:34N 56°05' E 012°34'1514.6
2014-Sep-09 04:34N 56°19' E 012°23'1615.0
2014-Sep-09 03:29N 56°34' E 012°16'1515.9
2014-Sep-09 02:33N 56°49' E 012°11'1616.3
2014-Sep-09 01:33N 57°04' E 011°60'1717.1
2014-Sep-09 00:34N 57°19' E 011°45'1716.9
2014-Sep-08 23:33N 57°34' E 011°30'1817.8
2014-Sep-08 22:34N 57°50' E 011°16'1716.8
2014-Sep-08 21:33N 58°06' E 011°07'5116.6
2014-Sep-08 18:30N 58°55' E 010°42'1617.0
2014-Sep-08 17:33N 59°11' E 010°38'1716.8
2014-Sep-08 16:33N 59°28' E 010°33'2713.5
2014-Sep-08 14:33N 59°54' E 010°44'0 0.2
2014-Sep-08 13:28N 59°54' E 010°45'0 0.0
2014-Sep-08 12:25N 59°54' E 010°45'0 0.0
2014-Sep-08 11:28N 59°54' E 010°45'0 0.0
2014-Sep-08 10:31N 59°54' E 010°45'0 0.0
2014-Sep-08 09:31N 59°54' E 010°45'0 0.0
2014-Sep-08 08:31N 59°54' E 010°45'1 0.9
2014-Sep-08 07:33N 59°54' E 010°43'2013.3
2014-Sep-08 06:04N 59°34' E 010°38'1216.2
2014-Sep-08 05:19N 59°22' E 010°35'1316.6
2014-Sep-08 04:33N 59°10' E 010°39'1616.3
2014-Sep-08 03:33N 58°54' E 010°44'4916.2
2014-Sep-08 00:32N 58°06' E 011°06'1616.2
2014-Sep-07 23:33N 57°51' E 011°16'1616.3
2014-Sep-07 22:34N 57°36' E 011°25'  
Track history (hours):
 
Tides and Currents Weather Stations Pressure Air Temp Water Temp Dewpoint Dewpoint Depression Visibility Wind Speed Wind Dir Waves Ship Positions

Pearl Of Scandinavia

Last reported at 2014-Sep-17 23:33 UTC. Time now 2014-Sep-17 23:36 UTC.
Position N 57°53' E 011°03'.

Length 176.4 m; beam 34 m; draft 6.215 m.

Type: Ship. MMSI: 219945000.

Date/timePositionNaut miles runAvg speedWind from/ knotsBaromVisibWave heightAir tempDewpointWater temp
2014-Sep-17 23:33N 57°53' E 011°03'1616.1
2014-Sep-17 22:33N 57°37' E 011°12'1616.4
2014-Sep-17 21:34N 57°24' E 011°31'1716.9
2014-Sep-17 20:33N 57°08' E 011°41'1716.8
2014-Sep-17 19:33N 56°52' E 011°51'1616.3
2014-Sep-17 18:33N 56°38' E 012°07'1616.1
2014-Sep-17 17:33N 56°24' E 012°20'1616.3
2014-Sep-17 16:33N 56°09' E 012°31'1616.2
2014-Sep-17 15:34N 55°55' E 012°44'1313.2
2014-Sep-17 14:33N 55°42' E 012°36'0 0.1
2014-Sep-17 13:32N 55°42' E 012°36'0 0.0
2014-Sep-17 12:32N 55°42' E 012°36'0 0.0
2014-Sep-17 11:32N 55°42' E 012°36'0 0.0
2014-Sep-17 10:32N 55°42' E 012°36'0 0.0
2014-Sep-17 09:32N 55°42' E 012°36'0 0.0
2014-Sep-17 08:32N 55°42' E 012°36'0 0.3
2014-Sep-17 07:34N 55°42' E 012°36'1111.3
2014-Sep-17 06:33N 55°53' E 012°40'1313.2
2014-Sep-17 05:33N 56°06' E 012°33'1414.4
2014-Sep-17 04:33N 56°19' E 012°22'1514.8
2014-Sep-17 03:33N 56°34' E 012°17'1615.7
2014-Sep-17 02:32N 56°49' E 012°11'1515.5
2014-Sep-17 01:33N 57°03' E 012°00'1615.5
2014-Sep-17 00:33N 57°17' E 011°48'1615.8
2014-Sep-16 23:33N 57°31' E 011°32'1616.4
2014-Sep-16 22:33N 57°46' E 011°21'1616.3
2014-Sep-16 21:33N 58°01' E 011°11'1616.3
2014-Sep-16 20:33N 58°17' E 011°01'3517.0
2014-Sep-16 18:31N 58°50' E 010°45'1617.0
2014-Sep-16 17:33N 59°07' E 010°39'1717.4
2014-Sep-16 16:33N 59°24' E 010°34'3115.1
2014-Sep-16 14:32N 59°54' E 010°43'1 0.6
2014-Sep-16 13:23N 59°54' E 010°45'0 0.0
2014-Sep-16 12:26N 59°54' E 010°45'0 0.0
2014-Sep-16 11:23N 59°54' E 010°45'0 0.0
2014-Sep-16 10:26N 59°54' E 010°45'0 0.0
2014-Sep-16 09:29N 59°54' E 010°45'0 0.0
2014-Sep-16 08:29N 59°54' E 010°45'0 0.1
2014-Sep-16 07:33N 59°54' E 010°45'1912.5
2014-Sep-16 06:04N 59°36' E 010°38'915.7
2014-Sep-16 05:30N 59°27' E 010°34'1516.2
2014-Sep-16 04:33N 59°12' E 010°39'1616.4
2014-Sep-16 03:33N 58°56' E 010°42'4916.2
2014-Sep-16 00:30N 58°08' E 011°06'1516.1
2014-Sep-15 23:33N 57°53' E 011°15'1616.4
2014-Sep-15 22:34N 57°38' E 011°24'1716.5
2014-Sep-15 21:34N 57°22' E 011°33'1616.3
2014-Sep-15 20:34N 57°06' E 011°42'1615.8
2014-Sep-15 19:34N 56°52' E 011°53'1615.7
2014-Sep-15 18:33N 56°38' E 012°07'1615.8
2014-Sep-15 17:34N 56°24' E 012°20'1717.1
2014-Sep-15 16:34N 56°08' E 012°32'1616.5
2014-Sep-15 15:33N 55°53' E 012°45'1212.2
2014-Sep-15 14:33N 55°42' E 012°36'0 0.0
2014-Sep-15 13:32N 55°42' E 012°36'0 0.0
2014-Sep-15 12:32N 55°42' E 012°36'0 0.0
2014-Sep-15 11:32N 55°42' E 012°36'0 0.0
2014-Sep-15 10:32N 55°42' E 012°36'0 0.0
2014-Sep-15 09:32N 55°42' E 012°36'0 0.0
2014-Sep-15 08:32N 55°42' E 012°36'0 0.2
2014-Sep-15 07:34N 55°42' E 012°36'1110.9
2014-Sep-15 06:34N 55°53' E 012°40'1413.5
2014-Sep-15 05:33N 56°06' E 012°33'1414.3
2014-Sep-15 04:33N 56°19' E 012°23'1515.1
2014-Sep-15 03:33N 56°34' E 012°17'1514.9
2014-Sep-15 02:33N 56°48' E 012°11'1515.2
2014-Sep-15 01:33N 57°03' E 012°01'1515.3
2014-Sep-15 00:33N 57°16' E 011°49'1515.2
2014-Sep-14 23:33N 57°29' E 011°34'1615.6
2014-Sep-14 22:33N 57°43' E 011°22'1616.3
2014-Sep-14 21:33N 57°58' E 011°12'1817.1
2014-Sep-14 20:32N 58°15' E 011°02'3617.4
2014-Sep-14 18:29N 58°50' E 010°45'1617.4
2014-Sep-14 17:33N 59°06' E 010°40'1817.7
2014-Sep-14 16:33N 59°23' E 010°34'3115.3
2014-Sep-14 14:32N 59°54' E 010°42'1 1.3
2014-Sep-14 13:30N 59°54' E 010°45'0 0.0
2014-Sep-14 12:33N 59°54' E 010°45'0 0.0
2014-Sep-14 11:33N 59°54' E 010°45'0 0.0
2014-Sep-14 10:33N 59°54' E 010°45'0 0.0
2014-Sep-14 09:21N 59°54' E 010°45'0 0.0
2014-Sep-14 08:33N 59°54' E 010°45'0 0.1
2014-Sep-14 07:33N 59°54' E 010°45'1212.2
2014-Sep-14 06:33N 59°43' E 010°35'1514.5
2014-Sep-14 05:33N 59°28' E 010°34'1616.1
2014-Sep-14 04:33N 59°12' E 010°39'1616.4
2014-Sep-14 03:33N 58°56' E 010°42'9816.3
2014-Sep-13 21:33N 57°22' E 011°33'1616.4
2014-Sep-13 20:33N 57°06' E 011°42'1716.4
2014-Sep-13 19:32N 56°51' E 011°53'1616.2
2014-Sep-13 18:33N 56°38' E 012°10'1616.1
2014-Sep-13 17:33N 56°23' E 012°20'1616.5
2014-Sep-13 16:33N 56°08' E 012°32'1716.6
2014-Sep-13 15:33N 55°53' E 012°44'1111.5
2014-Sep-13 14:33N 55°42' E 012°36'0 0.0
2014-Sep-13 13:34N 55°42' E 012°36'0 0.0
2014-Sep-13 12:33N 55°42' E 012°36'0 0.0
2014-Sep-13 11:33N 55°42' E 012°36'0 0.0
2014-Sep-13 10:33N 55°42' E 012°36'0 0.0
2014-Sep-13 09:33N 55°42' E 012°36'0 0.0
2014-Sep-13 08:33N 55°42' E 012°36'0 0.3
2014-Sep-13 07:33N 55°42' E 012°36'1110.7
2014-Sep-13 06:33N 55°53' E 012°40'1313.2
2014-Sep-13 05:33N 56°06' E 012°34'1414.0
2014-Sep-13 04:33N 56°18' E 012°23'1515.2
2014-Sep-13 03:33N 56°33' E 012°16'1615.6
2014-Sep-13 02:33N 56°48' E 012°09'1715.6
2014-Sep-13 01:29N 57°04' E 012°00'1516.4
2014-Sep-13 00:33N 57°18' E 011°48'1716.6
2014-Sep-12 23:33N 57°32' E 011°34'1717.1
2014-Sep-12 22:33N 57°47' E 011°19'1717.2
2014-Sep-12 21:33N 58°04' E 011°09'1916.9
2014-Sep-12 20:27N 58°22' E 010°59'3317.3
2014-Sep-12 18:33N 58°54' E 010°44'1817.7
2014-Sep-12 17:33N 59°11' E 010°38'1817.7
2014-Sep-12 16:33N 59°29' E 010°34'2613.0
2014-Sep-12 14:33N 59°54' E 010°45'0 0.0
2014-Sep-12 13:24N 59°54' E 010°45'0 0.0
2014-Sep-12 12:24N 59°54' E 010°45'0 0.0
2014-Sep-12 11:27N 59°54' E 010°45'0 0.0
2014-Sep-12 10:27N 59°54' E 010°45'0 0.0
2014-Sep-12 09:30N 59°54' E 010°45'0 0.0
2014-Sep-12 08:30N 59°54' E 010°45'0 0.2
2014-Sep-12 07:33N 59°54' E 010°45'3213.6
2014-Sep-12 05:14N 59°23' E 010°35'1116.6
2014-Sep-12 04:33N 59°12' E 010°39'1716.6
2014-Sep-12 03:33N 58°55' E 010°42'5016.5
2014-Sep-12 00:31N 58°07' E 011°07'1616.7
2014-Sep-11 23:33N 57°51' E 011°16'1616.2
2014-Sep-11 22:33N 57°36' E 011°25'1616.0
2014-Sep-11 21:33N 57°21' E 011°34'1616.1
2014-Sep-11 20:33N 57°05' E 011°43'1615.8
2014-Sep-11 19:33N 56°51' E 011°54'1615.7
2014-Sep-11 18:33N 56°37' E 012°09'1515.7
2014-Sep-11 17:33N 56°23' E 012°20'1616.0
2014-Sep-11 16:33N 56°08' E 012°32'1716.5
2014-Sep-11 15:33N 55°53' E 012°44'1212.2
2014-Sep-11 14:33N 55°42' E 012°36'0 0.0
2014-Sep-11 13:28N 55°42' E 012°36'0 0.0
2014-Sep-11 12:28N 55°42' E 012°36'0 0.0
2014-Sep-11 11:31N 55°42' E 012°36'0 0.0
2014-Sep-11 10:31N 55°42' E 012°36'0 0.0
2014-Sep-11 09:31N 55°42' E 012°36'0 0.0
2014-Sep-11 08:31N 55°42' E 012°36'0 0.1
2014-Sep-11 07:33N 55°42' E 012°36'1111.1
2014-Sep-11 06:33N 55°53' E 012°40'1313.3
2014-Sep-11 05:33N 56°06' E 012°34'1414.4
2014-Sep-11 04:34N 56°19' E 012°23'1615.6
2014-Sep-11 03:33N 56°34' E 012°16'1515.4
2014-Sep-11 02:33N 56°49' E 012°09'1615.7
2014-Sep-11 01:33N 57°04' E 012°00'1615.8
2014-Sep-11 00:33N 57°18' E 011°47'1716.7
2014-Sep-10 23:34N 57°33' E 011°32'1616.5
2014-Sep-10 22:33N 57°47' E 011°18'1616.3
2014-Sep-10 21:33N 58°03' E 011°09'1716.2
2014-Sep-10 20:29N 58°20' E 010°60'3316.5
2014-Sep-10 18:30N 58°51' E 010°46'1617.2
2014-Sep-10 17:33N 59°07' E 010°39'1818.0
2014-Sep-10 16:33N 59°25' E 010°33'2914.7
2014-Sep-10 14:33N 59°54' E 010°43'1 0.6
2014-Sep-10 13:28N 59°54' E 010°45'0 0.0
2014-Sep-10 12:28N 59°54' E 010°45'0 0.0
2014-Sep-10 11:31N 59°54' E 010°45'0 0.0
2014-Sep-10 10:31N 59°54' E 010°45'0 0.0
2014-Sep-10 09:31N 59°54' E 010°45'0 0.0
2014-Sep-10 08:31N 59°54' E 010°45'0 0.2
2014-Sep-10 07:33N 59°54' E 010°44'2713.7
2014-Sep-10 05:33N 59°27' E 010°34'1615.9
2014-Sep-10 04:33N 59°11' E 010°39'1616.0
2014-Sep-10 03:33N 58°56' E 010°42'4916.2
2014-Sep-10 00:33N 58°08' E 011°06'1716.9
2014-Sep-09 23:34N 57°52' E 011°15'1616.3
2014-Sep-09 22:33N 57°37' E 011°24'1616.2
2014-Sep-09 21:33N 57°21' E 011°33'1616.3
2014-Sep-09 20:33N 57°06' E 011°43'1616.0
2014-Sep-09 19:33N 56°51' E 011°55'1616.0
2014-Sep-09 18:33N 56°37' E 012°10'1616.2
2014-Sep-09 17:33N 56°23' E 012°21'1615.9
2014-Sep-09 16:33N 56°08' E 012°32'1514.6
2014-Sep-09 15:33N 55°55' E 012°44'1313.4
2014-Sep-09 14:33N 55°42' E 012°36'0 0.2
2014-Sep-09 13:32N 55°42' E 012°36'0 0.0
2014-Sep-09 12:32N 55°42' E 012°36'0 0.0
2014-Sep-09 11:32N 55°42' E 012°36'0 0.0
2014-Sep-09 10:32N 55°42' E 012°36'0 0.0
2014-Sep-09 09:32N 55°42' E 012°36'0 0.0
2014-Sep-09 08:32N 55°42' E 012°36'0 0.2
2014-Sep-09 07:33N 55°42' E 012°36'1110.6
2014-Sep-09 06:34N 55°53' E 012°40'1313.4
2014-Sep-09 05:34N 56°05' E 012°34'1514.6
2014-Sep-09 04:34N 56°19' E 012°23'1615.0
2014-Sep-09 03:29N 56°34' E 012°16'1515.9
2014-Sep-09 02:33N 56°49' E 012°11'1616.3
2014-Sep-09 01:33N 57°04' E 011°60'1717.1
2014-Sep-09 00:34N 57°19' E 011°45'1716.9
2014-Sep-08 23:33N 57°34' E 011°30'1817.8
2014-Sep-08 22:34N 57°50' E 011°16'1716.8
2014-Sep-08 21:33N 58°06' E 011°07'5116.6
2014-Sep-08 18:30N 58°55' E 010°42'1617.0
2014-Sep-08 17:33N 59°11' E 010°38'1716.8
2014-Sep-08 16:33N 59°28' E 010°33'2713.5
2014-Sep-08 14:33N 59°54' E 010°44'0 0.2
2014-Sep-08 13:28N 59°54' E 010°45'0 0.0
2014-Sep-08 12:25N 59°54' E 010°45'0 0.0
2014-Sep-08 11:28N 59°54' E 010°45'0 0.0
2014-Sep-08 10:31N 59°54' E 010°45'0 0.0
2014-Sep-08 09:31N 59°54' E 010°45'0 0.0
2014-Sep-08 08:31N 59°54' E 010°45'1 0.9
2014-Sep-08 07:33N 59°54' E 010°43'2013.3
2014-Sep-08 06:04N 59°34' E 010°38'1216.2
2014-Sep-08 05:19N 59°22' E 010°35'1316.6
2014-Sep-08 04:33N 59°10' E 010°39'1616.3
2014-Sep-08 03:33N 58°54' E 010°44'4916.2
2014-Sep-08 00:32N 58°06' E 011°06'1616.2
2014-Sep-07 23:33N 57°51' E 011°16'1616.3
2014-Sep-07 22:34N 57°36' E 011°25'  

Dump ship's entire track history